AirNav   Jet Aviation Boston
 
 387 users online  

5AZ6 Motown Airport
Mobile, Arizona, USA

GOING TO MOBILE?


FAA INFORMATION EFFECTIVE 21 JUNE 2018

Location

FAA Identifier: 5AZ6
Lat/Long: 32-55-30.0000N / 112-15-34.0000W
32-55.500000N / 112-15.566667W
32.9250000 / -112.2594444
(estimated)
Elevation: 1600 ft. / 488 m (estimated)
From city: 8 miles S of MOBILE, AZ
Time zone: UTC -7 (year round; does not observe DST)
Zip code: 85139

Airport Operations

Airport use: Private use. Permission required prior to landing
Activation date: 12/2007
Control tower: no
ARTCC: ALBUQUERQUE CENTER
FSS: PRESCOTT FLIGHT SERVICE STATION
Attendance: UNATNDD
Wind indicator: yes, ALSO A TETRAHEDRON.
Segmented circle: no

Airport Communications

WX AWOS-3 at A39 (18 nm E): 126.900 (520-568-7704)

Nearby radio navigation aids

VOR radial/distance  VOR name  Freq  Var
TFDr266/17.8STANFIELD VORTAC114.8012E
GBNr081/21.0GILA BEND VORTAC116.6014E
PXRr193/33.8PHOENIX VORTAC115.6012E
IWAr220/38.1WILLIE VORTAC113.3013E

 
NDB name  Hdg/Dist  Freq  Var  ID
CHANDLER216/30.640712ECHD -.-. .... -..

Airport Services

Runway Information

Runway 6/24

Dimensions: 2700 x 65 ft. / 823 x 20 m
Surface: dirt
RUNWAY 6  RUNWAY 24
Traffic pattern: leftleft
Obstructions: 4 ft. fence4 ft. fence

Airport Ownership and Management from official FAA records

Ownership: Privately-owned
Owner: MOTOWN LLC
P. O. BOX 1200
MARICOPA, AZ 85139
Phone 602-692-7995
Manager: MO SHELDON
P. O. BOX 1200
MARICOPA, AZ 85139
Phone 602-692-7995

Airport Operational Statistics

Aircraft based on the field: 2
Ultralights: 2
    

Additional Remarks

AVOID THE 40 FT WATER TANK 150 FT S AND THE 30 FT BLDG 50 FT S OF RY 06/24.
SLOW FLYING ULTRALIGHT ACFT INVOF THE ARPT.
AVOID THE ACTIVE SHOOTING RANGE NE OF RY 06/24.

Instrument Procedures

There are no published instrument procedures at 5AZ6.

Some nearby airports with instrument procedures:

KCGZ - Casa Grande Municipal Airport (25 nm E)
P19 - Stellar Airpark (28 nm NE)
KGYR - Phoenix Goodyear Airport (30 nm N)
KCHD - Chandler Municipal Airport (31 nm NE)
KPHX - Phoenix Sky Harbor International Airport (33 nm N)
 
Loc | Ops | Rwys | IFR | FBO | Links
Com | Nav | Svcs | Stats | Notes


 
Aerial photo
WARNING: Photo may not be current or correct
Aerial photo of 5AZ6 (Motown Airport)
Photo by Mo Sheldon

Do you have a better or more recent aerial photo of Motown Airport that you would like to share? If so, please send us your photo.

 
Sectional chart

 
Airport distance calculator
Flying to Motown Airport? Find the distance to fly.

From to 5AZ6

Sunrise and sunset
Times for 17-Jul-2018
 Local
(UTC-7)
 Zulu
(UTC)
Morning civil twilight05:0612:06
Sunrise05:3412:34
Sunset19:3702:37
Evening civil twilight20:0503:05

Current date and time
Zulu (UTC)  17-Jul-2018 08:42:09
Local (UTC-7)  17-Jul-2018 01:42:09
 
METAR
KA39 
18nm E 
170815Z AUTO 14014KT 10SM SCT100 SCT120 29/21 A2997 RMK AO2
KGXF 
23nm W 
170801Z AUTO 29004KT 6SM HZ VCTS SCT033 28/23 A2989 RMK AO2 RAE01 SLP107
KCGZ 
25nm E 
170756Z AUTO 12008KT 10SM BKN100 29/22 A2995 RMK AO2 SLP124 T02890222 $
KGYR 
30nm N 
170347Z 36012KT 10SM SCT090 BKN180 BKN250 38/19 A2982 RMK LAST
KCHD 
30nm NE 
170347Z 09012KT 10SM SCT120 BKN180 36/17 A2985 RMK LAST
KPHX 
32nm N 
170751Z 13007KT 10SM SCT130 BKN180 BKN210 31/21 A2988 RMK AO2 LTG DSNT SW SLP098 T03110206 $
TAF
KPHX 
32nm N 
170621Z 1706/1812 13015G23KT P6SM SCT090 BKN150 BKN250 TEMPO 1706/1707 33012G18KT FM171900 25006KT P6SM FEW110 SCT250 FM180400 14010KT P6SM SCT100 BKN250
KLUF 
36nm N 
170704Z 1707/1810 23009KT 9999 VCTS SCT100CB SCT180 QNH2979INS TEMPO 1707/1708 VRB15G25KT 8000 -TSRA BKN090CB BECMG 1708/1709 VRB06KT 9999 NSW SCT110 BKN200 QNH2982INS BECMG 1718/1719 26012KT 9999 SCT150 QNH2981INS TEMPO 1802/1806 19012G22KT VCTS SCT120CB TX40/1723Z TN27/1713Z
KIWA 
38nm NE 
170520Z 1706/1806 12010KT P6SM BKN120 BKN200 FM171900 25006KT P6SM FEW110 SCT250 FM180400 14010KT P6SM SCT100 BKN250 AMD LTD TO CLD VIS AND WIND TIL 171300
NOTAMs
Click for the latest NOTAMs
NOTAMs are issued by the DoD/FAA and will open in a separate window not controlled by AirNav.

 

 
 

Would you like to see your business listed on this page?

 If your business provides an interesting product or service to pilots, flight crews, aircraft, or users of the Motown Airport, you should consider listing it here.  To start the listing process, click on the button below
 
Add a business
 

Other Pages about Motown Airport

Update a link
 
Copyright © AirNav, LLC. All rights reserved. Privacy Policy  Contact